createdAt,value
2022-07-30T00:02:02.737Z,99099.28
2022-07-30T00:04:30.408Z,99098.13
2022-07-30T00:06:58.315Z,99098.75
2022-07-30T00:09:26.259Z,99101.19
2022-07-30T00:11:53.950Z,99104.00
2022-07-30T00:14:21.623Z,99097.69
2022-07-30T00:16:49.367Z,99095.22
2022-07-30T00:19:18.432Z,99090.00
2022-07-30T00:21:47.420Z,99085.50
2022-07-30T00:24:15.535Z,99084.75
2022-07-30T00:26:43.211Z,99079.13
2022-07-30T00:29:10.898Z,99071.72
2022-07-30T00:31:38.593Z,99066.34
2022-07-30T00:34:06.255Z,99061.88
2022-07-30T00:36:35.875Z,99062.63
2022-07-30T00:39:05.270Z,99057.63
2022-07-30T00:41:33.012Z,99062.97
2022-07-30T00:44:00.722Z,99063.19
2022-07-30T00:46:28.361Z,99063.50
2022-07-30T00:48:56.119Z,99062.13
2022-07-30T00:51:23.815Z,99062.31
2022-07-30T00:53:52.864Z,99058.28
2022-07-30T00:56:20.505Z,99045.47
2022-07-30T00:58:48.140Z,99063.50
2022-07-30T01:01:15.789Z,99062.78
2022-07-30T01:03:43.523Z,99058.34
2022-07-30T01:06:14.152Z,99070.81
2022-07-30T01:08:43.171Z,99071.25
2022-07-30T01:11:12.683Z,99058.19
2022-07-30T01:13:40.372Z,99075.63
2022-07-30T01:16:08.245Z,99078.19
2022-07-30T01:18:50.521Z,99079.78
2022-07-30T01:21:20.019Z,99073.06
2022-07-30T01:23:51.166Z,99073.63
2022-07-30T01:26:22.161Z,99067.78
2022-07-30T01:28:51.886Z,99067.16
2022-07-30T01:31:20.213Z,99075.06
2022-07-30T01:33:50.133Z,99082.09
2022-07-30T01:36:20.973Z,99079.19
2022-07-30T01:38:49.719Z,99086.00
2022-07-30T01:41:20.665Z,99077.25
2022-07-30T01:43:48.906Z,99082.53
2022-07-30T01:46:18.395Z,99081.34
2022-07-30T01:48:46.701Z,99070.47
2022-07-30T01:51:15.079Z,99076.31
2022-07-30T01:53:44.152Z,99078.34
2022-07-30T01:56:13.233Z,99079.78
2022-07-30T01:58:47.910Z,99085.00
2022-07-30T02:01:16.054Z,99077.22
2022-07-30T02:03:43.930Z,99086.56
2022-07-30T02:06:15.390Z,99094.56
2022-07-30T02:08:46.394Z,99085.00
2022-07-30T02:11:16.379Z,99089.03
2022-07-30T02:13:48.811Z,99085.94
2022-07-30T02:16:19.628Z,99086.50
2022-07-30T02:18:57.016Z,99089.69
2022-07-30T02:21:34.643Z,99091.72
2022-07-30T02:24:06.984Z,99092.69
2022-07-30T02:26:36.844Z,99087.72
2022-07-30T02:29:11.105Z,99098.03
2022-07-30T02:31:39.523Z,99093.28
2022-07-30T02:34:08.165Z,99095.09
2022-07-30T02:36:36.667Z,99087.94
2022-07-30T02:39:05.039Z,99099.25
2022-07-30T02:41:33.750Z,99095.41
2022-07-30T02:44:02.159Z,99098.81
2022-07-30T02:46:32.536Z,99098.28
2022-07-30T02:49:00.507Z,99096.69
2022-07-30T02:51:29.192Z,99090.72
2022-07-30T02:53:57.921Z,99104.56
2022-07-30T02:56:27.188Z,99103.19
2022-07-30T02:58:57.209Z,99107.13
2022-07-30T03:01:26.354Z,99110.97
2022-07-30T03:03:55.469Z,99106.16
2022-07-30T03:06:25.611Z,99110.22
2022-07-30T03:08:55.063Z,99101.78
2022-07-30T03:11:23.468Z,99100.84
2022-07-30T03:13:51.657Z,99089.13
2022-07-30T03:16:21.174Z,99099.22
2022-07-30T03:18:49.524Z,99098.91
2022-07-30T03:21:20.726Z,99090.63
2022-07-30T03:23:49.202Z,99105.72
2022-07-30T03:26:17.765Z,99107.31
2022-07-30T03:28:45.954Z,99110.94
2022-07-30T03:31:16.008Z,99104.88
2022-07-30T03:33:44.949Z,99110.75
2022-07-30T03:36:15.523Z,99110.53
2022-07-30T03:38:45.160Z,99107.34
2022-07-30T03:41:13.800Z,99102.88
2022-07-30T03:43:41.668Z,99107.75
2022-07-30T03:46:10.978Z,99108.06
2022-07-30T03:48:39.700Z,99104.03
2022-07-30T03:51:09.238Z,99124.16
2022-07-30T03:53:37.246Z,99111.28
2022-07-30T03:56:06.653Z,99116.28
2022-07-30T03:58:36.092Z,99122.78
2022-07-30T04:01:04.188Z,99114.91
2022-07-30T04:03:33.582Z,99124.38
2022-07-30T04:06:01.366Z,99122.13
2022-07-30T04:08:29.269Z,99126.50
2022-07-30T04:10:57.159Z,99129.59
2022-07-30T04:13:26.220Z,99136.50
2022-07-30T04:16:37.044Z,99126.59
2022-07-30T04:18:52.917Z,99141.63
2022-07-30T04:21:22.278Z,99144.81
2022-07-30T04:24:02.901Z,99145.25
2022-07-30T04:26:33.630Z,99148.22
2022-07-30T04:29:03.257Z,99145.78
2022-07-30T04:31:40.335Z,99155.34
2022-07-30T04:34:09.160Z,99156.84
2022-07-30T04:36:36.859Z,99152.06
2022-07-30T04:39:05.030Z,99160.69
2022-07-30T04:41:48.331Z,99163.28
2022-07-30T04:44:19.218Z,99167.84
2022-07-30T04:46:47.321Z,99161.56
2022-07-30T04:49:17.531Z,99167.84
2022-07-30T04:51:46.187Z,99169.25
2022-07-30T04:54:16.251Z,99175.84
2022-07-30T04:57:00.956Z,99178.81
2022-07-30T04:59:30.198Z,99184.78
2022-07-30T05:02:00.121Z,99182.66
2022-07-30T05:04:29.394Z,99178.81
2022-07-30T05:06:58.488Z,99184.53
2022-07-30T05:09:26.791Z,99188.59
2022-07-30T05:11:54.944Z,99188.69
2022-07-30T05:14:22.943Z,99188.13
2022-07-30T05:16:52.307Z,99193.13
2022-07-30T05:19:20.819Z,99182.88
2022-07-30T05:21:48.705Z,99186.44
2022-07-30T05:24:16.399Z,99183.34
2022-07-30T05:26:44.130Z,99186.63
2022-07-30T05:29:19.696Z,99189.19
2022-07-30T05:31:48.374Z,99194.09
2022-07-30T05:34:17.661Z,99193.53
2022-07-30T05:36:45.563Z,99199.03
2022-07-30T05:39:13.346Z,99204.31
2022-07-30T05:41:41.026Z,99205.22
2022-07-30T05:44:08.864Z,99202.59
2022-07-30T05:46:36.545Z,99203.44
2022-07-30T05:49:05.535Z,99214.16
2022-07-30T05:51:34.587Z,99212.00
2022-07-30T05:54:02.250Z,99212.13
2022-07-30T05:56:29.957Z,99211.22
2022-07-30T05:58:57.582Z,99209.53
2022-07-30T06:01:25.336Z,99214.28
2022-07-30T06:03:53.064Z,99213.31
2022-07-30T06:06:23.115Z,99218.81
2022-07-30T06:08:52.543Z,99220.25
2022-07-30T06:11:20.458Z,99224.03
2022-07-30T06:13:48.109Z,99226.59
2022-07-30T06:16:16.024Z,99228.91
2022-07-30T06:18:43.753Z,99234.00
2022-07-30T06:21:11.604Z,99225.50
2022-07-30T06:23:39.255Z,99233.03
2022-07-30T06:26:08.341Z,99230.22
2022-07-30T06:28:38.221Z,99229.25
2022-07-30T06:31:06.593Z,99226.09
2022-07-30T06:33:34.455Z,99235.56
2022-07-30T06:36:02.195Z,99227.16
2022-07-30T06:38:30.062Z,99235.69
2022-07-30T06:41:02.583Z,99231.88
2022-07-30T06:43:33.484Z,99234.41
2022-07-30T06:46:01.268Z,99233.78
2022-07-30T06:48:31.340Z,99240.69
2022-07-30T06:50:58.948Z,99234.31
2022-07-30T06:53:26.637Z,99241.75
2022-07-30T06:55:58.502Z,99239.75
2022-07-30T06:58:28.459Z,99243.75
2022-07-30T07:00:57.498Z,99237.41
2022-07-30T07:03:26.217Z,99240.88
2022-07-30T07:06:07.559Z,99245.56
2022-07-30T07:08:36.896Z,99245.00
2022-07-30T07:11:04.678Z,99248.91
2022-07-30T07:13:32.326Z,99252.09
2022-07-30T07:16:01.935Z,99244.78
2022-07-30T07:18:29.581Z,99250.94
2022-07-30T07:20:57.440Z,99248.00
2022-07-30T07:23:25.121Z,99240.59
2022-07-30T07:25:52.802Z,99242.75
2022-07-30T07:28:20.672Z,99243.84
2022-07-30T07:30:48.462Z,99247.25
2022-07-30T07:33:17.502Z,99246.13
2022-07-30T07:35:49.508Z,99243.91
2022-07-30T07:38:17.839Z,99250.63
2022-07-30T07:40:45.634Z,99255.38
2022-07-30T07:43:13.466Z,99253.28
2022-07-30T07:45:41.819Z,99248.09
2022-07-30T07:48:09.516Z,99251.94
2022-07-30T07:50:39.153Z,99253.06
2022-07-30T07:53:07.168Z,99246.03
2022-07-30T07:55:34.890Z,99248.56
2022-07-30T07:58:03.155Z,99250.75
2022-07-30T08:00:31.946Z,99236.75
2022-07-30T08:03:00.330Z,99248.50
2022-07-30T08:06:00.959Z,99246.94
2022-07-30T08:08:17.168Z,99248.22
2022-07-30T08:10:44.853Z,99250.19
2022-07-30T08:13:52.082Z,99244.53
2022-07-30T08:16:00.373Z,99246.06
2022-07-30T08:18:28.032Z,99250.47
2022-07-30T08:20:55.943Z,99239.56
2022-07-30T08:23:25.393Z,99250.25
2022-07-30T08:25:53.030Z,99256.88
2022-07-30T08:28:36.485Z,99251.94
2022-07-30T08:31:04.846Z,99244.81
2022-07-30T08:33:32.538Z,99248.69
2022-07-30T08:36:04.025Z,99247.47
2022-07-30T08:38:33.584Z,99245.41
2022-07-30T08:41:01.322Z,99252.41
2022-07-30T08:43:30.382Z,99243.44
2022-07-30T08:45:58.583Z,99253.91
2022-07-30T08:48:26.423Z,99250.41
2022-07-30T08:50:54.939Z,99251.19
2022-07-30T08:53:23.430Z,99251.06
2022-07-30T08:55:55.673Z,99237.44
2022-07-30T08:58:29.621Z,99242.91
2022-07-30T09:00:57.692Z,99238.03
2022-07-30T09:03:25.581Z,99240.03
2022-07-30T09:05:53.344Z,99244.88
2022-07-30T09:08:21.095Z,99245.16
2022-07-30T09:10:50.682Z,99239.72
2022-07-30T09:13:26.867Z,99240.94
2022-07-30T09:15:55.297Z,99247.78
2022-07-30T09:18:31.246Z,99253.53
2022-07-30T09:21:00.340Z,99246.81
2022-07-30T09:23:28.093Z,99246.31
2022-07-30T09:25:57.099Z,99243.28
2022-07-30T09:28:33.679Z,99247.66
2022-07-30T09:31:01.766Z,99245.81
2022-07-30T09:33:35.105Z,99242.00
2022-07-30T09:36:04.782Z,99247.50
2022-07-30T09:38:43.657Z,99253.97
2022-07-30T09:41:29.032Z,99247.00
2022-07-30T09:44:04.377Z,99239.38
2022-07-30T09:46:42.642Z,99239.13
2022-07-30T09:49:15.524Z,99245.59
2022-07-30T09:51:55.704Z,99239.31
2022-07-30T09:54:51.252Z,99238.97
2022-07-30T09:57:26.309Z,99249.66
2022-07-30T09:59:57.663Z,99243.66
2022-07-30T10:02:32.437Z,99238.81
2022-07-30T10:05:10.920Z,99243.03
2022-07-30T10:07:49.562Z,99247.47
2022-07-30T10:10:20.973Z,99230.91
2022-07-30T10:12:49.978Z,99235.69
2022-07-30T10:15:20.500Z,99238.88
2022-07-30T10:17:49.046Z,99238.94
2022-07-30T10:20:17.880Z,99233.91
2022-07-30T10:22:48.125Z,99229.66
2022-07-30T10:25:20.927Z,99234.44
2022-07-30T10:27:51.206Z,99221.03
2022-07-30T10:30:29.304Z,99227.13
2022-07-30T10:32:58.702Z,99224.94
2022-07-30T10:35:34.790Z,99222.19
2022-07-30T10:38:08.826Z,99223.50
2022-07-30T10:40:41.677Z,99215.63
2022-07-30T10:43:31.840Z,99215.84
2022-07-30T10:46:10.524Z,99221.13
2022-07-30T10:48:49.805Z,99221.63
2022-07-30T10:51:25.456Z,99212.84
2022-07-30T10:54:02.484Z,99212.69
2022-07-30T10:56:30.243Z,99213.75
2022-07-30T10:58:59.484Z,99209.84
2022-07-30T11:02:08.178Z,99213.22
2022-07-30T11:04:37.364Z,99209.81
2022-07-30T11:07:29.453Z,99202.69
2022-07-30T11:10:05.575Z,99201.91
2022-07-30T11:12:54.009Z,99198.50
2022-07-30T11:15:22.703Z,99209.34
2022-07-30T11:18:05.023Z,99202.06
2022-07-30T11:20:43.290Z,99197.47
2022-07-30T11:23:39.524Z,99197.16
2022-07-30T11:26:14.235Z,99195.09
2022-07-30T11:28:44.692Z,99201.38
2022-07-30T11:31:36.883Z,99205.50
2022-07-30T11:34:27.875Z,99199.44
2022-07-30T11:37:18.843Z,99197.16
2022-07-30T11:40:11.000Z,99189.75
2022-07-30T11:42:40.607Z,99192.19
2022-07-30T11:45:26.729Z,99197.91
2022-07-30T11:47:56.648Z,99190.19
2022-07-30T11:50:26.822Z,99195.16
2022-07-30T11:52:58.592Z,99183.53
2022-07-30T11:55:28.100Z,99189.69
2022-07-30T11:57:56.816Z,99182.31
2022-07-30T12:00:25.474Z,99192.91
2022-07-30T12:02:54.058Z,99181.88
2022-07-30T12:05:29.371Z,99186.00
2022-07-30T12:08:01.779Z,99183.44
2022-07-30T12:10:29.724Z,99178.69
2022-07-30T12:13:08.742Z,99182.69
2022-07-30T12:15:38.679Z,99186.19
2022-07-30T12:21:00.830Z,99170.66
2022-07-30T12:23:31.650Z,99169.28
2022-07-30T12:26:05.284Z,99161.38
2022-07-30T12:28:35.553Z,99163.75
2022-07-30T12:31:04.378Z,99166.81
2022-07-30T12:33:32.828Z,99178.16
2022-07-30T12:36:02.102Z,99171.84
2022-07-30T12:38:31.656Z,99163.19
2022-07-30T12:41:02.840Z,99178.63
2022-07-30T12:43:51.201Z,99174.78
2022-07-30T12:46:21.133Z,99162.91
2022-07-30T12:48:56.542Z,99173.53
2022-07-30T12:51:27.983Z,99164.72
2022-07-30T12:54:01.215Z,99168.63
2022-07-30T12:56:30.249Z,99169.25
2022-07-30T12:59:00.183Z,99163.28
2022-07-30T13:01:41.880Z,99163.97
2022-07-30T13:04:10.390Z,99159.84
2022-07-30T13:06:40.414Z,99164.41
2022-07-30T13:09:20.184Z,99161.03
2022-07-30T13:11:49.731Z,99152.50
2022-07-30T13:14:17.835Z,99157.47
2022-07-30T13:16:45.944Z,99160.53
2022-07-30T13:19:14.291Z,99155.59
2022-07-30T13:21:49.428Z,99164.19
2022-07-30T13:24:19.930Z,99159.34
2022-07-30T13:26:48.060Z,99160.34
2022-07-30T13:29:18.671Z,99166.44
2022-07-30T13:31:46.409Z,99154.94
2022-07-30T13:34:14.003Z,99155.66
2022-07-30T13:36:41.670Z,99159.16
2022-07-30T13:39:09.329Z,99147.13
2022-07-30T13:41:38.627Z,99150.16
2022-07-30T13:44:06.319Z,99144.31
2022-07-30T13:46:33.964Z,99144.78
2022-07-30T13:49:01.811Z,99144.31
2022-07-30T13:51:29.475Z,99150.22
2022-07-30T13:53:57.288Z,99140.75
2022-07-30T13:56:24.964Z,99141.47
2022-07-30T13:58:54.780Z,99140.22
2022-07-30T14:01:22.851Z,99139.50
2022-07-30T14:03:51.150Z,99134.81
2022-07-30T14:06:19.239Z,99139.41
2022-07-30T14:08:47.011Z,99134.38
2022-07-30T14:11:15.571Z,99128.91
2022-07-30T14:13:43.307Z,99130.25
2022-07-30T14:16:35.325Z,99128.69
2022-07-30T14:19:00.768Z,99118.88
2022-07-30T14:21:28.585Z,99131.25
2022-07-30T14:23:56.275Z,99129.75
2022-07-30T14:26:23.946Z,99126.44
2022-07-30T14:28:51.689Z,99130.25
2022-07-30T14:31:20.731Z,99133.78
2022-07-30T14:33:48.374Z,99127.41
2022-07-30T14:36:16.092Z,99124.47
2022-07-30T14:38:44.293Z,99124.00
2022-07-30T14:41:12.591Z,99124.72
2022-07-30T14:43:40.237Z,99124.63
2022-07-30T14:46:07.899Z,99126.53
2022-07-30T14:48:36.900Z,99118.88
2022-07-30T14:51:17.942Z,99119.91
2022-07-30T14:53:50.291Z,99119.63
2022-07-30T14:56:18.184Z,99122.25
2022-07-30T14:58:46.146Z,99118.72
2022-07-30T15:01:16.171Z,99123.13
2022-07-30T15:03:46.329Z,99121.28
2022-07-30T15:06:15.295Z,99113.72
2022-07-30T15:08:43.181Z,99125.00
2022-07-30T15:11:10.846Z,99120.22
2022-07-30T15:13:49.706Z,99118.25
2022-07-30T15:16:18.786Z,99121.00
2022-07-30T15:18:48.143Z,99116.22
2022-07-30T15:21:15.849Z,99115.72
2022-07-30T15:23:43.666Z,99120.63
2022-07-30T15:26:11.571Z,99117.56
2022-07-30T15:28:39.608Z,99119.88
2022-07-30T15:31:07.585Z,99122.03
2022-07-30T15:33:37.196Z,99128.13
2022-07-30T15:36:07.260Z,99122.59
2022-07-30T15:38:34.913Z,99118.28
2022-07-30T15:41:02.741Z,99120.72
2022-07-30T15:43:30.507Z,99121.47
2022-07-30T15:45:58.335Z,99106.25
2022-07-30T15:48:27.725Z,99120.91
2022-07-30T15:51:01.988Z,99119.13
2022-07-30T15:53:31.713Z,99124.28
2022-07-30T15:55:59.875Z,99122.88
2022-07-30T15:58:27.829Z,99118.53
2022-07-30T16:00:55.765Z,99119.44
2022-07-30T16:03:23.778Z,99123.53
2022-07-30T16:05:53.026Z,99123.47
2022-07-30T16:08:20.947Z,99126.09
2022-07-30T16:10:50.312Z,99121.19
2022-07-30T16:13:18.270Z,99113.91
2022-07-30T16:15:46.258Z,99115.41
2022-07-30T16:18:15.334Z,99116.13
2022-07-30T16:20:43.396Z,99120.81
2022-07-30T16:23:14.959Z,99110.22
2022-07-30T16:25:44.735Z,99115.06
2022-07-30T16:28:13.800Z,99107.50
2022-07-30T16:30:50.557Z,99115.22
2022-07-30T16:33:23.210Z,99113.22
2022-07-30T16:35:51.207Z,99108.72
2022-07-30T16:38:19.304Z,99110.78
2022-07-30T16:40:47.520Z,99112.50
2022-07-30T16:43:19.797Z,99119.66
2022-07-30T16:45:48.215Z,99113.84
2022-07-30T16:48:16.210Z,99110.78
2022-07-30T16:50:44.295Z,99108.50
2022-07-30T16:53:14.406Z,99118.72
2022-07-30T16:55:42.364Z,99115.88
2022-07-30T16:58:10.027Z,99124.94
2022-07-30T17:00:39.700Z,99118.78
2022-07-30T17:03:07.476Z,99121.97
2022-07-30T17:05:35.287Z,99121.31
2022-07-30T17:08:06.611Z,99123.06
2022-07-30T17:10:36.356Z,99119.03
2022-07-30T17:13:04.375Z,99125.47
2022-07-30T17:15:33.324Z,99135.59
2022-07-30T17:18:02.773Z,99134.75
2022-07-30T17:20:31.172Z,99135.78
2022-07-30T17:22:58.959Z,99129.09
2022-07-30T17:25:28.230Z,99133.00
2022-07-30T17:27:56.235Z,99124.41
2022-07-30T17:30:24.290Z,99134.03
2022-07-30T17:32:52.081Z,99144.38
2022-07-30T17:35:21.419Z,99134.09
2022-07-30T17:37:49.411Z,99136.81
2022-07-30T17:40:28.370Z,99129.06
2022-07-30T17:43:03.241Z,99132.75
2022-07-30T17:45:31.578Z,99138.03
2022-07-30T17:48:01.300Z,99152.00
2022-07-30T17:50:30.524Z,99147.28
2022-07-30T17:52:58.435Z,99146.06
2022-07-30T17:55:28.358Z,99149.81
2022-07-30T17:57:56.334Z,99143.38
2022-07-30T18:00:24.111Z,99158.22
2022-07-30T18:02:51.877Z,99151.06
2022-07-30T18:05:19.894Z,99148.00
2022-07-30T18:07:49.321Z,99149.66
2022-07-30T18:10:16.938Z,99147.13
2022-07-30T18:12:48.702Z,99153.38
2022-07-30T18:15:17.517Z,99160.41
2022-07-30T18:17:45.336Z,99157.91
2022-07-30T18:20:13.353Z,99154.00
2022-07-30T18:22:41.183Z,99163.56
2022-07-30T18:25:18.724Z,99161.03
2022-07-30T18:27:47.387Z,99164.94
2022-07-30T18:30:15.243Z,99161.16
2022-07-30T18:32:43.244Z,99169.22
2022-07-30T18:35:14.460Z,99163.91
2022-07-30T18:37:43.440Z,99171.75
2022-07-30T18:40:14.155Z,99168.97
2022-07-30T18:42:42.043Z,99170.16
2022-07-30T18:45:13.664Z,99174.84
2022-07-30T18:47:41.443Z,99179.03
2022-07-30T18:50:09.927Z,99181.69
2022-07-30T18:52:37.810Z,99184.63
2022-07-30T18:55:06.373Z,99190.13
2022-07-30T18:57:35.421Z,99188.44
2022-07-30T19:00:04.335Z,99188.75
2022-07-30T19:02:32.026Z,99188.22
2022-07-30T19:04:59.687Z,99188.78
2022-07-30T19:07:27.321Z,99189.41
2022-07-30T19:09:55.798Z,99196.53
2022-07-30T19:12:23.695Z,99195.63
2022-07-30T19:14:52.708Z,99203.69
2022-07-30T19:17:20.411Z,99201.38
2022-07-30T19:20:10.027Z,99210.16
2022-07-30T19:22:37.739Z,99193.19
2022-07-30T19:25:06.273Z,99216.13
2022-07-30T19:27:33.915Z,99212.03
2022-07-30T19:30:03.725Z,99216.28
2022-07-30T19:32:31.776Z,99218.03
2022-07-30T19:34:59.664Z,99219.78
2022-07-30T19:37:27.269Z,99235.66
2022-07-30T19:40:05.099Z,99231.97
2022-07-30T19:42:34.481Z,99235.97
2022-07-30T19:45:04.194Z,99243.47
2022-07-30T19:47:42.423Z,99254.00
2022-07-30T19:50:11.309Z,99252.00
2022-07-30T19:52:39.621Z,99256.13
2022-07-30T19:55:18.442Z,99257.56
2022-07-30T19:57:56.324Z,99253.00
2022-07-30T20:00:25.543Z,99259.69
2022-07-30T20:02:53.681Z,99263.13
2022-07-30T20:05:24.890Z,99265.13
2022-07-30T20:07:52.917Z,99266.84
2022-07-30T20:10:20.589Z,99263.59
2022-07-30T20:12:50.272Z,99270.25
2022-07-30T20:15:18.168Z,99275.66
2022-07-30T20:17:47.227Z,99273.09
2022-07-30T20:20:15.241Z,99271.53
2022-07-30T20:22:43.028Z,99265.88
2022-07-30T20:25:11.101Z,99267.31
2022-07-30T20:27:41.293Z,99273.81
2022-07-30T20:30:12.447Z,99271.84
2022-07-30T20:32:44.786Z,99280.47
2022-07-30T20:35:16.947Z,99275.78
2022-07-30T20:37:55.057Z,99278.91
2022-07-30T20:40:26.649Z,99273.13
2022-07-30T20:42:54.993Z,99283.16
2022-07-30T20:45:24.646Z,99278.06
2022-07-30T20:47:55.997Z,99281.59
2022-07-30T20:50:30.848Z,99280.47
2022-07-30T20:52:59.638Z,99279.34
2022-07-30T20:55:27.599Z,99287.69
2022-07-30T20:58:00.392Z,99285.13
2022-07-30T21:00:36.938Z,99288.38
2022-07-30T21:03:05.476Z,99286.41
2022-07-30T21:05:36.440Z,99290.38
2022-07-30T21:08:04.256Z,99296.44
2022-07-30T21:10:33.789Z,99291.91
2022-07-30T21:13:03.730Z,99290.09
2022-07-30T21:15:36.167Z,99292.34
2022-07-30T21:18:04.349Z,99289.50
2022-07-30T21:20:33.938Z,99294.47
2022-07-30T21:23:05.989Z,99289.94
2022-07-30T21:25:38.040Z,99289.38
2022-07-30T21:28:27.153Z,99286.41
2022-07-30T21:30:57.145Z,99290.06
2022-07-30T21:33:25.624Z,99286.13
2022-07-30T21:36:00.427Z,99287.81
2022-07-30T21:38:28.699Z,99288.22
2022-07-30T21:40:58.443Z,99289.78
2022-07-30T21:43:29.419Z,99284.53
2022-07-30T21:45:57.630Z,99271.38
2022-07-30T21:48:25.674Z,99283.84
2022-07-30T21:50:54.460Z,99282.69
2022-07-30T21:53:30.022Z,99290.84
2022-07-30T21:56:12.224Z,99299.66
2022-07-30T21:58:39.991Z,99300.75
2022-07-30T22:01:16.629Z,99297.63
2022-07-30T22:04:01.501Z,99296.38
2022-07-30T22:06:34.148Z,99298.19
2022-07-30T22:09:18.129Z,99299.03
2022-07-30T22:11:48.125Z,99302.28
2022-07-30T22:14:15.937Z,99294.34
2022-07-30T22:16:46.152Z,99307.34
2022-07-30T22:19:14.632Z,99298.41
2022-07-30T22:21:42.837Z,99290.94
2022-07-30T22:24:28.643Z,99295.31
2022-07-30T22:26:59.981Z,99304.22
2022-07-30T22:29:34.235Z,99286.94
2022-07-30T22:32:03.017Z,99297.72
2022-07-30T22:34:31.130Z,99295.03
2022-07-30T22:36:58.924Z,99296.72
2022-07-30T22:39:31.616Z,99290.06
2022-07-30T22:42:00.836Z,99300.84
2022-07-30T22:44:29.068Z,99295.31
2022-07-30T22:46:56.740Z,99297.75
2022-07-30T22:49:46.010Z,99298.16
2022-07-30T22:52:19.464Z,99299.00
2022-07-30T22:54:51.012Z,99293.31
2022-07-30T22:57:22.803Z,99294.44
2022-07-30T22:59:58.005Z,99301.25
2022-07-30T23:02:27.801Z,99289.22
2022-07-30T23:04:56.374Z,99293.03
2022-07-30T23:07:33.005Z,99288.06
2022-07-30T23:10:17.081Z,99286.34
2022-07-30T23:12:49.049Z,99292.84
2022-07-30T23:15:16.784Z,99290.16
2022-07-30T23:17:45.032Z,99281.25
2022-07-30T23:20:17.303Z,99290.25
2022-07-30T23:22:45.068Z,99287.31
2022-07-30T23:25:14.736Z,99280.38
2022-07-30T23:27:42.708Z,99282.75
2022-07-30T23:30:11.739Z,99282.31
2022-07-30T23:32:39.866Z,99280.34
2022-07-30T23:35:08.751Z,99279.31
2022-07-30T23:37:37.992Z,99275.47
2022-07-30T23:40:17.473Z,99278.50
2022-07-30T23:42:45.260Z,99279.00
2022-07-30T23:45:13.357Z,99278.84
2022-07-30T23:48:01.711Z,99280.47
2022-07-30T23:50:29.039Z,99280.47
2022-07-30T23:52:56.839Z,99272.56
2022-07-30T23:55:26.970Z,99283.16
2022-07-30T23:57:55.829Z,99285.56
